createdAt,value
2023-02-21T00:00:32.346Z,67.01
2023-02-21T00:03:17.084Z,66.86
2023-02-21T00:06:01.899Z,67.18
2023-02-21T00:08:46.721Z,67.66
2023-02-21T00:11:31.424Z,67.26
2023-02-21T00:14:16.189Z,67.85
2023-02-21T00:17:01.021Z,67.27
2023-02-21T00:19:45.659Z,67.99
2023-02-21T00:22:30.389Z,68.40
2023-02-21T00:25:15.126Z,68.15
2023-02-21T00:28:00.033Z,68.40
2023-02-21T00:30:45.021Z,68.47
2023-02-21T00:33:30.144Z,68.22
2023-02-21T00:36:14.747Z,68.91
2023-02-21T00:38:59.550Z,69.07
2023-02-21T00:41:44.386Z,68.56
2023-02-21T00:44:29.027Z,69.20
2023-02-21T00:47:13.710Z,68.84
2023-02-21T00:49:58.443Z,69.08
2023-02-21T00:52:43.215Z,69.59
2023-02-21T00:55:27.895Z,69.26
2023-02-21T00:58:12.764Z,69.81
2023-02-21T01:00:57.414Z,70.25
2023-02-21T01:03:42.348Z,70.38
2023-02-21T01:06:29.163Z,69.77
2023-02-21T01:09:14.153Z,69.83
2023-02-21T01:11:59.118Z,69.56
2023-02-21T01:14:43.982Z,69.87
2023-02-21T01:17:29.008Z,69.99
2023-02-21T01:20:13.717Z,69.72
2023-02-21T01:22:58.509Z,69.73
2023-02-21T01:25:43.218Z,69.61
2023-02-21T01:28:28.501Z,69.30
2023-02-21T01:31:13.686Z,69.85
2023-02-21T01:34:00.121Z,69.25
2023-02-21T01:36:46.392Z,69.33
2023-02-21T01:39:31.549Z,69.41
2023-02-21T01:42:16.332Z,68.78
2023-02-21T01:45:03.604Z,69.67
2023-02-21T01:47:49.298Z,69.58
2023-02-21T01:50:38.292Z,69.96
2023-02-21T01:53:28.621Z,70.05
2023-02-21T01:56:15.809Z,70.22
2023-02-21T01:59:01.498Z,70.77
2023-02-21T02:01:56.194Z,70.98
2023-02-21T02:04:40.935Z,70.96
2023-02-21T02:07:26.367Z,71.11
2023-02-21T02:10:11.198Z,71.41
2023-02-21T02:12:53.457Z,71.44
2023-02-21T02:15:32.741Z,71.51
2023-02-21T02:18:16.299Z,71.82
2023-02-21T02:21:04.614Z,72.10
2023-02-21T02:23:43.079Z,72.35
2023-02-21T02:26:24.593Z,72.63
2023-02-21T02:29:00.005Z,73.25
2023-02-21T02:31:52.301Z,72.98
2023-02-21T02:34:30.704Z,72.87
2023-02-21T02:37:24.002Z,73.20
2023-02-21T02:40:28.654Z,73.38
2023-02-21T02:43:21.122Z,73.73
2023-02-21T02:45:59.677Z,73.89
2023-02-21T02:49:12.385Z,74.04
2023-02-21T02:51:38.988Z,74.10
2023-02-21T02:54:05.539Z,74.16
2023-02-21T02:56:33.688Z,74.01
2023-02-21T02:59:08.988Z,74.38
2023-02-21T03:01:53.631Z,74.33
2023-02-21T03:04:31.031Z,74.35
2023-02-21T03:07:22.567Z,74.03
2023-02-21T03:10:08.098Z,73.88
2023-02-21T03:12:45.089Z,73.56
2023-02-21T03:15:19.065Z,74.03
2023-02-21T03:18:08.309Z,73.56
2023-02-21T03:20:36.772Z,73.68
2023-02-21T03:23:05.348Z,73.37
2023-02-21T03:25:34.186Z,73.58
2023-02-21T03:28:00.597Z,74.27
2023-02-21T03:30:28.833Z,73.92
2023-02-21T03:32:55.796Z,73.85
2023-02-21T03:35:22.195Z,73.66
2023-02-21T03:37:52.732Z,73.82
2023-02-21T03:40:26.724Z,74.39
2023-02-21T03:42:54.246Z,74.28
2023-02-21T03:45:20.786Z,74.38
2023-02-21T03:47:47.192Z,74.73
2023-02-21T03:50:13.686Z,74.65
2023-02-21T03:52:40.478Z,74.97
2023-02-21T03:55:07.914Z,74.97
2023-02-21T03:57:34.842Z,75.09
2023-02-21T04:00:01.272Z,75.37
2023-02-21T04:02:27.928Z,74.99
2023-02-21T04:04:54.242Z,74.71
2023-02-21T04:07:21.194Z,75.08
2023-02-21T04:09:48.039Z,75.31
2023-02-21T04:12:14.649Z,75.35
2023-02-21T04:14:41.240Z,75.39
2023-02-21T04:17:07.625Z,75.17
2023-02-21T04:19:34.036Z,74.95
2023-02-21T04:22:00.331Z,75.33
2023-02-21T04:24:26.705Z,75.52
2023-02-21T04:26:53.068Z,75.03
2023-02-21T04:29:19.784Z,75.26
2023-02-21T04:31:46.136Z,75.10
2023-02-21T04:34:12.956Z,75.01
2023-02-21T04:36:40.086Z,74.88
2023-02-21T04:39:07.560Z,74.53
2023-02-21T04:41:34.097Z,74.78
2023-02-21T04:44:00.477Z,74.42
2023-02-21T04:46:26.798Z,74.12
2023-02-21T04:48:53.890Z,74.34
2023-02-21T04:51:23.579Z,74.11
2023-02-21T04:53:50.686Z,74.12
2023-02-21T04:56:23.362Z,74.10
2023-02-21T04:58:50.085Z,74.08
2023-02-21T05:01:18.882Z,74.49
2023-02-21T05:03:45.647Z,74.76
2023-02-21T05:06:20.656Z,74.85
2023-02-21T05:08:47.330Z,74.91
2023-02-21T05:11:14.568Z,74.44
2023-02-21T05:13:41.095Z,74.96
2023-02-21T05:16:07.694Z,74.98
2023-02-21T05:18:34.555Z,74.93
2023-02-21T05:21:02.700Z,74.56
2023-02-21T05:23:36.618Z,75.05
2023-02-21T05:26:04.437Z,75.19
2023-02-21T05:28:30.911Z,75.15
2023-02-21T05:31:00.467Z,75.44
2023-02-21T05:33:27.517Z,74.87
2023-02-21T05:35:54.265Z,75.10
2023-02-21T05:38:22.167Z,74.62
2023-02-21T05:40:48.701Z,74.72
2023-02-21T05:43:15.465Z,74.53
2023-02-21T05:45:42.092Z,74.32
2023-02-21T05:48:08.820Z,74.31
2023-02-21T05:50:35.158Z,74.33
2023-02-21T05:53:01.656Z,74.61
2023-02-21T05:55:28.416Z,74.27
2023-02-21T05:57:55.304Z,74.03
2023-02-21T06:00:28.085Z,74.30
2023-02-21T06:02:55.530Z,74.13
2023-02-21T06:05:23.131Z,73.77
2023-02-21T06:07:50.183Z,73.67
2023-02-21T06:10:17.127Z,73.67
2023-02-21T06:12:43.770Z,73.43
2023-02-21T06:15:10.159Z,73.61
2023-02-21T06:17:37.517Z,73.74
2023-02-21T06:20:04.977Z,74.13
2023-02-21T06:22:31.672Z,73.91
2023-02-21T06:24:57.971Z,74.45
2023-02-21T06:27:24.392Z,74.40
2023-02-21T06:29:50.733Z,74.62
2023-02-21T06:32:17.138Z,74.58
2023-02-21T06:34:44.337Z,74.41
2023-02-21T06:37:10.792Z,74.19
2023-02-21T06:39:39.036Z,74.54
2023-02-21T06:42:06.219Z,74.57
2023-02-21T06:44:32.654Z,74.25
2023-02-21T06:46:58.972Z,74.09
2023-02-21T06:49:25.236Z,74.36
2023-02-21T06:51:51.558Z,74.21
2023-02-21T06:54:17.889Z,74.29
2023-02-21T06:56:46.813Z,74.55
2023-02-21T06:59:13.183Z,74.05
2023-02-21T07:01:39.698Z,74.14
2023-02-21T07:04:06.070Z,73.71
2023-02-21T07:06:33.536Z,73.27
2023-02-21T07:09:00.240Z,73.89
2023-02-21T07:11:28.239Z,73.58
2023-02-21T07:13:56.747Z,73.20
2023-02-21T07:16:23.134Z,73.35
2023-02-21T07:18:49.479Z,73.29
2023-02-21T07:21:17.363Z,73.38
2023-02-21T07:23:45.125Z,73.36
2023-02-21T07:26:12.287Z,73.29
2023-02-21T07:28:38.647Z,73.49
2023-02-21T07:31:05.238Z,73.26
2023-02-21T07:33:31.686Z,73.23
2023-02-21T07:35:57.984Z,73.25
2023-02-21T07:38:26.713Z,73.07
2023-02-21T07:40:57.834Z,72.64
2023-02-21T07:43:28.637Z,72.62
2023-02-21T07:45:55.157Z,71.66
2023-02-21T07:48:21.973Z,71.70
2023-02-21T07:50:48.938Z,70.90
2023-02-21T07:53:15.607Z,70.89
2023-02-21T07:55:42.352Z,70.58
2023-02-21T07:58:08.995Z,70.00
2023-02-21T08:00:35.974Z,69.64
2023-02-21T08:03:03.233Z,69.05
2023-02-21T08:05:29.610Z,68.62
2023-02-21T08:07:56.052Z,68.08
2023-02-21T08:10:24.939Z,68.13
2023-02-21T08:12:51.501Z,66.92
2023-02-21T08:15:18.131Z,67.66
2023-02-21T08:17:44.676Z,66.79
2023-02-21T08:20:11.223Z,65.40
2023-02-21T08:22:37.554Z,64.97
2023-02-21T08:25:04.283Z,63.40
2023-02-21T08:27:30.797Z,63.11
2023-02-21T08:29:57.151Z,63.07
2023-02-21T08:32:23.753Z,61.17
2023-02-21T08:34:50.450Z,60.66
2023-02-21T08:37:20.137Z,60.14
2023-02-21T08:39:52.178Z,58.49
2023-02-21T08:42:20.228Z,53.25
2023-02-21T08:44:47.131Z,49.32
2023-02-21T08:47:15.350Z,47.02
2023-02-21T08:49:47.291Z,47.94
2023-02-21T08:52:18.018Z,48.56
2023-02-21T08:54:45.122Z,48.03
2023-02-21T08:57:12.545Z,46.87
2023-02-21T08:59:43.018Z,43.31
2023-02-21T09:02:20.862Z,40.41
2023-02-21T09:04:47.517Z,39.21
2023-02-21T09:07:19.172Z,38.41
2023-02-21T09:09:46.167Z,36.03
2023-02-21T09:12:13.053Z,36.55
2023-02-21T09:14:41.314Z,35.44
2023-02-21T09:17:12.742Z,36.27
2023-02-21T09:19:39.483Z,35.94
2023-02-21T09:22:10.232Z,34.93
2023-02-21T09:24:37.529Z,34.11
2023-02-21T09:27:05.114Z,33.28
2023-02-21T09:29:44.888Z,32.58
2023-02-21T09:32:12.946Z,32.33
2023-02-21T09:34:39.735Z,31.71
2023-02-21T09:37:06.097Z,32.27
2023-02-21T09:39:32.475Z,33.11
2023-02-21T09:41:58.930Z,33.06
2023-02-21T09:44:28.542Z,33.68
2023-02-21T09:47:00.054Z,33.77
2023-02-21T09:49:40.665Z,33.62
2023-02-21T09:52:22.339Z,33.36
2023-02-21T09:54:54.569Z,34.26
2023-02-21T09:57:20.880Z,36.48
2023-02-21T09:59:49.159Z,35.45
2023-02-21T10:02:47.442Z,36.00
2023-02-21T10:05:27.946Z,36.19
2023-02-21T10:08:15.573Z,38.60
2023-02-21T10:10:56.205Z,39.88
2023-02-21T10:13:32.091Z,42.08
2023-02-21T10:16:13.755Z,43.25
2023-02-21T10:19:03.551Z,44.23
2023-02-21T10:21:34.946Z,46.43
2023-02-21T10:24:11.988Z,46.00
2023-02-21T10:26:42.246Z,45.51
2023-02-21T10:29:21.247Z,45.25
2023-02-21T10:31:49.702Z,45.85
2023-02-21T10:34:35.251Z,47.01
2023-02-21T10:37:28.504Z,46.28
2023-02-21T10:40:00.911Z,45.12
2023-02-21T10:42:36.368Z,46.21
2023-02-21T10:45:04.840Z,46.35
2023-02-21T10:48:02.777Z,45.75
2023-02-21T10:50:40.416Z,46.01
2023-02-21T10:53:09.609Z,44.86
2023-02-21T10:55:36.232Z,44.52
2023-02-21T10:58:10.938Z,45.70
2023-02-21T11:00:42.043Z,44.82
2023-02-21T11:03:27.408Z,44.54
2023-02-21T11:05:57.751Z,45.10
2023-02-21T11:08:43.869Z,44.97
2023-02-21T11:11:10.924Z,45.13
2023-02-21T11:13:37.793Z,44.50
2023-02-21T11:16:22.348Z,45.60
2023-02-21T11:19:04.793Z,45.62
2023-02-21T11:21:31.604Z,45.72
2023-02-21T11:24:04.810Z,46.30
2023-02-21T11:26:36.542Z,47.11
2023-02-21T11:29:13.694Z,47.09
2023-02-21T11:31:40.649Z,48.04
2023-02-21T11:34:09.548Z,46.65
2023-02-21T11:36:39.757Z,46.62
2023-02-21T11:39:19.992Z,46.87
2023-02-21T11:41:54.821Z,46.60
2023-02-21T11:44:41.746Z,45.56
2023-02-21T11:47:17.782Z,46.37
2023-02-21T11:50:01.565Z,44.48
2023-02-21T11:53:12.622Z,44.94
2023-02-21T11:55:39.937Z,44.57
2023-02-21T11:58:44.660Z,43.90
2023-02-21T12:01:21.582Z,42.55
2023-02-21T12:04:21.777Z,40.16
2023-02-21T12:07:05.720Z,39.39
2023-02-21T12:09:53.058Z,39.20
2023-02-21T12:12:31.647Z,37.44
2023-02-21T12:15:48.477Z,37.55
2023-02-21T12:18:28.162Z,37.19
2023-02-21T12:21:04.890Z,38.42
2023-02-21T12:23:53.286Z,37.92
2023-02-21T12:26:49.415Z,37.10
2023-02-21T12:29:34.388Z,37.83
2023-02-21T12:32:24.139Z,36.50
2023-02-21T12:35:11.962Z,35.66
2023-02-21T12:38:06.853Z,36.25
2023-02-21T12:40:51.325Z,35.32
2023-02-21T12:43:36.519Z,35.56
2023-02-21T12:46:02.891Z,36.48
2023-02-21T12:48:46.071Z,36.06
2023-02-21T12:51:22.396Z,37.10
2023-02-21T12:53:57.394Z,37.61
2023-02-21T12:56:36.223Z,36.99
2023-02-21T12:59:20.522Z,36.40
2023-02-21T13:02:01.683Z,36.55
2023-02-21T13:04:37.994Z,37.14
2023-02-21T13:07:25.076Z,37.51
2023-02-21T13:10:14.409Z,36.93
2023-02-21T13:13:13.744Z,36.90
2023-02-21T13:15:42.480Z,36.11
2023-02-21T13:18:19.792Z,36.05
2023-02-21T13:20:56.465Z,35.74
2023-02-21T13:24:00.610Z,35.78
2023-02-21T13:27:01.005Z,36.33
2023-02-21T13:29:38.924Z,36.29
2023-02-21T13:32:09.957Z,35.07
2023-02-21T13:35:00.239Z,35.13
2023-02-21T13:37:30.644Z,36.15
2023-02-21T13:40:33.070Z,35.28
2023-02-21T13:43:05.220Z,35.90
2023-02-21T13:45:31.635Z,34.86
2023-02-21T13:47:58.094Z,34.51
2023-02-21T13:50:39.914Z,34.11
2023-02-21T13:53:23.500Z,35.33
2023-02-21T13:56:14.794Z,36.43
2023-02-21T13:58:50.426Z,37.36
2023-02-21T14:01:33.070Z,37.65
2023-02-21T14:03:59.476Z,38.09
2023-02-21T14:06:33.667Z,38.14
2023-02-21T14:09:04.820Z,38.29
2023-02-21T14:11:37.725Z,38.41
2023-02-21T14:14:27.945Z,37.79
2023-02-21T14:17:06.984Z,38.48
2023-02-21T14:19:59.480Z,38.79
2023-02-21T14:22:31.046Z,38.59
2023-02-21T14:25:17.143Z,38.18
2023-02-21T14:27:43.521Z,37.71
2023-02-21T14:30:12.980Z,38.79
2023-02-21T14:32:48.279Z,37.68
2023-02-21T14:35:24.351Z,39.09
2023-02-21T14:38:15.792Z,39.18
2023-02-21T14:40:49.094Z,38.17
2023-02-21T14:43:30.606Z,37.53
2023-02-21T14:46:18.802Z,37.21
2023-02-21T14:48:51.113Z,37.80
2023-02-21T14:51:51.412Z,38.25
2023-02-21T14:54:23.690Z,38.47
2023-02-21T14:57:02.529Z,39.87
2023-02-21T15:00:06.831Z,40.43
2023-02-21T15:02:54.819Z,40.19
2023-02-21T15:05:30.104Z,39.16
2023-02-21T15:07:59.843Z,39.19
2023-02-21T15:10:33.084Z,38.95
2023-02-21T15:13:02.228Z,39.21
2023-02-21T15:15:38.164Z,40.38
2023-02-21T15:18:23.158Z,40.22
2023-02-21T15:21:22.206Z,40.30
2023-02-21T15:24:00.822Z,40.40
2023-02-21T15:26:31.145Z,40.32
2023-02-21T15:29:15.619Z,41.24
2023-02-21T15:31:49.309Z,40.53
2023-02-21T15:34:25.868Z,40.63
2023-02-21T15:37:00.248Z,42.07
2023-02-21T15:39:33.334Z,42.96
2023-02-21T15:42:01.655Z,43.61
2023-02-21T15:44:40.576Z,45.04
2023-02-21T15:47:22.452Z,44.79
2023-02-21T15:50:12.960Z,45.62
2023-02-21T15:52:48.867Z,44.81
2023-02-21T15:55:26.700Z,46.56
2023-02-21T15:58:04.984Z,46.13
2023-02-21T16:00:43.939Z,46.58
2023-02-21T16:03:36.945Z,47.24
2023-02-21T16:06:18.306Z,46.84
2023-02-21T16:09:03.557Z,47.50
2023-02-21T16:11:51.863Z,48.48
2023-02-21T16:14:29.204Z,48.01
2023-02-21T16:17:21.724Z,48.10
2023-02-21T16:19:52.494Z,48.80
2023-02-21T16:22:43.001Z,50.01
2023-02-21T16:25:25.161Z,49.74
2023-02-21T16:27:58.911Z,50.39
2023-02-21T16:30:27.954Z,50.41
2023-02-21T16:33:00.097Z,51.11
2023-02-21T16:35:27.724Z,51.52
2023-02-21T16:37:56.742Z,51.92
2023-02-21T16:40:26.621Z,51.73
2023-02-21T16:42:54.249Z,51.79
2023-02-21T16:45:21.712Z,52.25
2023-02-21T16:47:49.850Z,52.74
2023-02-21T16:50:22.398Z,53.79
2023-02-21T16:52:48.769Z,53.04
2023-02-21T16:55:17.084Z,53.43
2023-02-21T16:57:47.636Z,54.67
2023-02-21T17:00:14.836Z,55.45
2023-02-21T17:02:41.258Z,56.28
2023-02-21T17:05:07.882Z,57.20
2023-02-21T17:07:34.166Z,57.45
2023-02-21T17:10:00.494Z,58.05
2023-02-21T17:12:26.792Z,57.80
2023-02-21T17:14:53.211Z,58.30
2023-02-21T17:17:19.507Z,58.56
2023-02-21T17:19:45.885Z,59.29
2023-02-21T17:22:12.201Z,59.07
2023-02-21T17:24:38.693Z,60.04
2023-02-21T17:27:05.046Z,61.17
2023-02-21T17:29:31.431Z,61.52
2023-02-21T17:31:58.764Z,61.11
2023-02-21T17:34:25.209Z,61.27
2023-02-21T17:36:52.381Z,61.84
2023-02-21T17:39:20.626Z,61.39
2023-02-21T17:41:48.557Z,62.44
2023-02-21T17:44:15.187Z,62.53
2023-02-21T17:46:49.852Z,62.33
2023-02-21T17:49:17.931Z,62.78
2023-02-21T17:51:44.455Z,63.66
2023-02-21T17:54:10.766Z,63.64
2023-02-21T17:56:37.071Z,64.23
2023-02-21T17:59:03.469Z,65.15
2023-02-21T18:01:31.168Z,64.76
2023-02-21T18:03:57.582Z,65.33
2023-02-21T18:06:23.909Z,64.55
2023-02-21T18:08:50.950Z,64.78
2023-02-21T18:11:17.958Z,65.05
2023-02-21T18:13:44.793Z,65.81
2023-02-21T18:16:11.154Z,65.93
2023-02-21T18:18:37.634Z,65.89
2023-02-21T18:21:04.220Z,66.48
2023-02-21T18:23:31.463Z,66.43
2023-02-21T18:25:58.426Z,65.93
2023-02-21T18:28:25.504Z,66.60
2023-02-21T18:30:53.697Z,66.72
2023-02-21T18:33:22.088Z,67.57
2023-02-21T18:35:48.784Z,67.43
2023-02-21T18:38:16.516Z,67.06
2023-02-21T18:40:45.852Z,67.20
2023-02-21T18:43:19.800Z,67.71
2023-02-21T18:45:48.475Z,68.32
2023-02-21T18:48:14.927Z,67.57
2023-02-21T18:50:41.713Z,68.56
2023-02-21T18:53:07.977Z,68.56
2023-02-21T18:55:35.120Z,69.13
2023-02-21T18:58:01.683Z,69.17
2023-02-21T19:00:29.554Z,68.85
2023-02-21T19:02:56.428Z,69.25
2023-02-21T19:05:23.629Z,68.67
2023-02-21T19:07:52.674Z,69.37
2023-02-21T19:10:22.342Z,69.47
2023-02-21T19:12:49.529Z,70.16
2023-02-21T19:15:17.185Z,69.82
2023-02-21T19:17:43.885Z,70.43
2023-02-21T19:20:12.214Z,69.92
2023-02-21T19:22:38.733Z,70.29
2023-02-21T19:25:05.643Z,69.83
2023-02-21T19:27:31.867Z,70.42
2023-02-21T19:29:58.323Z,70.51
2023-02-21T19:32:24.996Z,70.61
2023-02-21T19:34:51.798Z,70.49
2023-02-21T19:37:18.747Z,70.91
2023-02-21T19:39:45.362Z,70.74
2023-02-21T19:42:12.040Z,70.21
2023-02-21T19:44:38.376Z,70.76
2023-02-21T19:47:04.706Z,70.78
2023-02-21T19:49:31.055Z,71.63
2023-02-21T19:51:59.009Z,71.40
2023-02-21T19:54:29.753Z,72.29
2023-02-21T19:57:00.033Z,72.01
2023-02-21T19:59:26.907Z,72.16
2023-02-21T20:01:54.113Z,71.99
2023-02-21T20:04:22.458Z,72.23
2023-02-21T20:06:50.248Z,72.33
2023-02-21T20:09:16.847Z,73.17
2023-02-21T20:11:43.880Z,72.79
2023-02-21T20:14:11.831Z,72.80
2023-02-21T20:16:43.718Z,72.82
2023-02-21T20:19:11.537Z,72.85
2023-02-21T20:21:38.472Z,73.03
2023-02-21T20:24:07.067Z,73.09
2023-02-21T20:26:33.435Z,73.61
2023-02-21T20:28:59.745Z,73.08
2023-02-21T20:31:29.805Z,73.83
2023-02-21T20:33:56.626Z,74.19
2023-02-21T20:36:31.288Z,74.49
2023-02-21T20:38:57.624Z,74.37
2023-02-21T20:41:32.355Z,74.01
2023-02-21T20:43:59.323Z,74.44
2023-02-21T20:46:26.296Z,74.39
2023-02-21T20:48:52.920Z,74.84
2023-02-21T20:51:30.868Z,74.62
2023-02-21T20:54:00.208Z,75.46
2023-02-21T20:56:32.479Z,74.88
2023-02-21T20:58:58.785Z,75.45
2023-02-21T21:01:25.539Z,75.47
2023-02-21T21:03:52.410Z,75.88
2023-02-21T21:06:19.315Z,75.64
2023-02-21T21:08:45.834Z,75.89
2023-02-21T21:11:12.391Z,76.03
2023-02-21T21:13:39.597Z,76.19
2023-02-21T21:16:08.034Z,76.19
2023-02-21T21:18:34.624Z,75.84
2023-02-21T21:21:00.916Z,76.37
2023-02-21T21:23:27.264Z,76.27
2023-02-21T21:25:53.545Z,76.46
2023-02-21T21:28:19.860Z,76.88
2023-02-21T21:30:46.835Z,76.67
2023-02-21T21:33:13.086Z,76.86
2023-02-21T21:35:39.333Z,77.28
2023-02-21T21:38:07.381Z,76.86
2023-02-21T21:40:33.669Z,77.26
2023-02-21T21:43:02.191Z,77.32
2023-02-21T21:45:28.546Z,76.94
2023-02-21T21:47:59.791Z,77.48
2023-02-21T21:50:26.879Z,76.74
2023-02-21T21:52:58.285Z,77.32
2023-02-21T21:55:27.292Z,76.86
2023-02-21T21:57:54.701Z,77.28
2023-02-21T22:00:23.830Z,77.08
2023-02-21T22:02:58.486Z,77.08
2023-02-21T22:05:26.519Z,77.49
2023-02-21T22:07:54.214Z,77.68
2023-02-21T22:10:21.654Z,77.40
2023-02-21T22:12:49.860Z,77.65
2023-02-21T22:15:22.266Z,77.47
2023-02-21T22:17:49.262Z,77.57
2023-02-21T22:20:17.636Z,77.75
2023-02-21T22:22:51.417Z,77.37
2023-02-21T22:25:20.927Z,77.67
2023-02-21T22:27:48.697Z,78.02
2023-02-21T22:30:21.176Z,77.73
2023-02-21T22:32:48.628Z,77.89
2023-02-21T22:35:18.951Z,77.86
2023-02-21T22:37:53.145Z,77.85
2023-02-21T22:40:24.115Z,77.90
2023-02-21T22:42:52.407Z,77.68
2023-02-21T22:45:21.799Z,77.64
2023-02-21T22:47:49.355Z,77.44
2023-02-21T22:50:22.941Z,77.73
2023-02-21T22:52:58.536Z,78.24
2023-02-21T22:55:26.973Z,77.95
2023-02-21T22:57:55.199Z,77.71
2023-02-21T23:00:25.967Z,78.58
2023-02-21T23:02:52.722Z,78.19
2023-02-21T23:05:21.654Z,77.69
2023-02-21T23:07:52.865Z,78.29
2023-02-21T23:10:25.719Z,78.25
2023-02-21T23:12:58.074Z,78.61
2023-02-21T23:15:25.974Z,78.60
2023-02-21T23:17:53.644Z,78.74
2023-02-21T23:20:26.676Z,78.89
2023-02-21T23:22:54.476Z,79.18
2023-02-21T23:25:25.394Z,79.13
2023-02-21T23:27:57.118Z,79.22
2023-02-21T23:30:33.046Z,79.69
2023-02-21T23:32:59.386Z,79.03
2023-02-21T23:35:25.688Z,79.48
2023-02-21T23:37:53.227Z,79.65
2023-02-21T23:40:22.774Z,79.72
2023-02-21T23:42:51.350Z,79.51
2023-02-21T23:45:23.026Z,79.69
2023-02-21T23:47:54.958Z,80.04
2023-02-21T23:50:30.522Z,79.95
2023-02-21T23:53:02.286Z,80.55
2023-02-21T23:55:35.544Z,80.29
2023-02-21T23:58:03.986Z,80.06
